sensor_id;sensor_type;location;lat;lon;timestamp;P1;durP1;ratioP1;P2;durP2;ratioP2
19951;SDS011;10137;49.406;19.484;2023-08-21T00:00:08;12.10;;;9.95;;
19951;SDS011;10137;49.406;19.484;2023-08-21T00:02:38;15.10;;;9.82;;
19951;SDS011;10137;49.406;19.484;2023-08-21T00:05:05;13.85;;;9.73;;
19951;SDS011;10137;49.406;19.484;2023-08-21T00:07:32;13.85;;;10.65;;
19951;SDS011;10137;49.406;19.484;2023-08-21T00:09:59;12.05;;;9.35;;
19951;SDS011;10137;49.406;19.484;2023-08-21T00:12:27;13.50;;;10.07;;
19951;SDS011;10137;49.406;19.484;2023-08-21T00:14:54;12.30;;;10.15;;
19951;SDS011;10137;49.406;19.484;2023-08-21T00:17:21;13.18;;;9.88;;
19951;SDS011;10137;49.406;19.484;2023-08-21T00:19:49;14.43;;;10.00;;
19951;SDS011;10137;49.406;19.484;2023-08-21T00:22:15;11.73;;;9.38;;
19951;SDS011;10137;49.406;19.484;2023-08-21T00:24:42;14.52;;;10.32;;
19951;SDS011;10137;49.406;19.484;2023-08-21T00:27:09;11.30;;;9.88;;
19951;SDS011;10137;49.406;19.484;2023-08-21T00:29:37;11.30;;;9.77;;
19951;SDS011;10137;49.406;19.484;2023-08-21T00:32:04;12.55;;;10.25;;
19951;SDS011;10137;49.406;19.484;2023-08-21T00:34:32;13.75;;;10.25;;
19951;SDS011;10137;49.406;19.484;2023-08-21T00:36:59;12.50;;;10.00;;
19951;SDS011;10137;49.406;19.484;2023-08-21T00:39:26;12.18;;;9.77;;
19951;SDS011;10137;49.406;19.484;2023-08-21T00:41:53;13.40;;;10.43;;
19951;SDS011;10137;49.406;19.484;2023-08-21T00:44:20;15.40;;;10.30;;
19951;SDS011;10137;49.406;19.484;2023-08-21T00:46:48;12.60;;;10.32;;
19951;SDS011;10137;49.406;19.484;2023-08-21T00:49:15;13.68;;;9.55;;
19951;SDS011;10137;49.406;19.484;2023-08-21T00:51:42;13.32;;;9.65;;
19951;SDS011;10137;49.406;19.484;2023-08-21T00:54:10;17.95;;;9.60;;
19951;SDS011;10137;49.406;19.484;2023-08-21T00:56:37;14.35;;;9.40;;
19951;SDS011;10137;49.406;19.484;2023-08-21T00:59:04;14.35;;;10.48;;
19951;SDS011;10137;49.406;19.484;2023-08-21T01:01:32;12.13;;;9.80;;
19951;SDS011;10137;49.406;19.484;2023-08-21T01:04:01;16.70;;;9.75;;
19951;SDS011;10137;49.406;19.484;2023-08-21T01:06:29;13.15;;;9.90;;
19951;SDS011;10137;49.406;19.484;2023-08-21T01:08:57;13.90;;;10.57;;
19951;SDS011;10137;49.406;19.484;2023-08-21T01:11:29;12.60;;;9.63;;
19951;SDS011;10137;49.406;19.484;2023-08-21T01:14:03;14.27;;;9.65;;
19951;SDS011;10137;49.406;19.484;2023-08-21T01:16:39;12.57;;;9.77;;
19951;SDS011;10137;49.406;19.484;2023-08-21T01:19:13;13.50;;;9.90;;
19951;SDS011;10137;49.406;19.484;2023-08-21T01:21:48;11.93;;;9.48;;
19951;SDS011;10137;49.406;19.484;2023-08-21T01:24:20;13.70;;;10.65;;
19951;SDS011;10137;49.406;19.484;2023-08-21T01:26:47;17.42;;;10.65;;
19951;SDS011;10137;49.406;19.484;2023-08-21T01:29:13;12.82;;;10.55;;
19951;SDS011;10137;49.406;19.484;2023-08-21T01:31:40;14.40;;;9.77;;
19951;SDS011;10137;49.406;19.484;2023-08-21T01:34:14;19.70;;;9.80;;
19951;SDS011;10137;49.406;19.484;2023-08-21T01:36:42;11.93;;;9.63;;
19951;SDS011;10137;49.406;19.484;2023-08-21T01:39:09;13.77;;;10.70;;
19951;SDS011;10137;49.406;19.484;2023-08-21T01:41:38;16.52;;;10.23;;
19951;SDS011;10137;49.406;19.484;2023-08-21T01:44:04;13.65;;;9.82;;
19951;SDS011;10137;49.406;19.484;2023-08-21T01:46:31;12.00;;;9.50;;
19951;SDS011;10137;49.406;19.484;2023-08-21T01:48:58;12.23;;;9.45;;
19951;SDS011;10137;49.406;19.484;2023-08-21T01:51:25;13.63;;;10.30;;
19951;SDS011;10137;49.406;19.484;2023-08-21T01:53:52;12.77;;;9.77;;
19951;SDS011;10137;49.406;19.484;2023-08-21T01:56:19;14.50;;;10.20;;
19951;SDS011;10137;49.406;19.484;2023-08-21T01:58:47;12.88;;;10.50;;
19951;SDS011;10137;49.406;19.484;2023-08-21T02:01:14;11.40;;;9.48;;
19951;SDS011;10137;49.406;19.484;2023-08-21T02:03:43;13.48;;;9.90;;
19951;SDS011;10137;49.406;19.484;2023-08-21T02:06:11;14.55;;;9.27;;
19951;SDS011;10137;49.406;19.484;2023-08-21T02:08:38;12.43;;;9.88;;
19951;SDS011;10137;49.406;19.484;2023-08-21T02:11:05;17.27;;;10.30;;
19951;SDS011;10137;49.406;19.484;2023-08-21T02:13:32;18.00;;;10.02;;
19951;SDS011;10137;49.406;19.484;2023-08-21T02:16:00;12.55;;;9.70;;
19951;SDS011;10137;49.406;19.484;2023-08-21T02:18:27;13.00;;;9.90;;
19951;SDS011;10137;49.406;19.484;2023-08-21T02:20:54;14.27;;;9.73;;
19951;SDS011;10137;49.406;19.484;2023-08-21T02:23:21;12.70;;;10.53;;
19951;SDS011;10137;49.406;19.484;2023-08-21T02:25:49;12.23;;;9.87;;
19951;SDS011;10137;49.406;19.484;2023-08-21T02:28:16;12.93;;;10.33;;
19951;SDS011;10137;49.406;19.484;2023-08-21T02:30:43;14.73;;;10.00;;
19951;SDS011;10137;49.406;19.484;2023-08-21T02:33:11;14.90;;;9.73;;
19951;SDS011;10137;49.406;19.484;2023-08-21T02:35:38;12.60;;;10.10;;
19951;SDS011;10137;49.406;19.484;2023-08-21T02:38:05;13.43;;;10.23;;
19951;SDS011;10137;49.406;19.484;2023-08-21T02:40:32;15.60;;;10.67;;
19951;SDS011;10137;49.406;19.484;2023-08-21T02:42:59;13.23;;;10.73;;
19951;SDS011;10137;49.406;19.484;2023-08-21T02:45:26;15.57;;;10.30;;
19951;SDS011;10137;49.406;19.484;2023-08-21T02:47:53;10.67;;;9.57;;
19951;SDS011;10137;49.406;19.484;2023-08-21T02:50:21;13.80;;;9.90;;
19951;SDS011;10137;49.406;19.484;2023-08-21T02:52:48;15.23;;;9.83;;
19951;SDS011;10137;49.406;19.484;2023-08-21T02:55:15;12.70;;;9.93;;
19951;SDS011;10137;49.406;19.484;2023-08-21T02:57:42;14.63;;;10.47;;
19951;SDS011;10137;49.406;19.484;2023-08-21T03:00:09;15.57;;;9.47;;
19951;SDS011;10137;49.406;19.484;2023-08-21T03:02:37;11.83;;;10.03;;
19951;SDS011;10137;49.406;19.484;2023-08-21T03:05:08;12.80;;;10.40;;
19951;SDS011;10137;49.406;19.484;2023-08-21T03:07:36;13.57;;;10.03;;
19951;SDS011;10137;49.406;19.484;2023-08-21T03:10:04;11.70;;;9.80;;
19951;SDS011;10137;49.406;19.484;2023-08-21T03:12:32;12.63;;;10.13;;
19951;SDS011;10137;49.406;19.484;2023-08-21T03:14:59;13.83;;;10.37;;
19951;SDS011;10137;49.406;19.484;2023-08-21T03:17:25;15.30;;;10.70;;
19951;SDS011;10137;49.406;19.484;2023-08-21T03:19:52;16.37;;;9.37;;
19951;SDS011;10137;49.406;19.484;2023-08-21T03:22:19;12.17;;;9.57;;
19951;SDS011;10137;49.406;19.484;2023-08-21T03:24:48;16.17;;;9.87;;
19951;SDS011;10137;49.406;19.484;2023-08-21T03:27:15;13.57;;;9.63;;
19951;SDS011;10137;49.406;19.484;2023-08-21T03:29:42;14.07;;;9.93;;
19951;SDS011;10137;49.406;19.484;2023-08-21T03:32:13;14.77;;;9.93;;
19951;SDS011;10137;49.406;19.484;2023-08-21T03:34:40;14.53;;;10.37;;
19951;SDS011;10137;49.406;19.484;2023-08-21T03:37:07;13.83;;;9.90;;
19951;SDS011;10137;49.406;19.484;2023-08-21T03:39:34;14.60;;;10.83;;
19951;SDS011;10137;49.406;19.484;2023-08-21T03:42:03;12.80;;;9.70;;
19951;SDS011;10137;49.406;19.484;2023-08-21T03:44:30;12.27;;;9.80;;
19951;SDS011;10137;49.406;19.484;2023-08-21T03:46:58;13.40;;;10.03;;
19951;SDS011;10137;49.406;19.484;2023-08-21T03:49:25;17.40;;;10.73;;
19951;SDS011;10137;49.406;19.484;2023-08-21T03:51:52;14.53;;;10.07;;
19951;SDS011;10137;49.406;19.484;2023-08-21T03:54:19;12.70;;;10.13;;
19951;SDS011;10137;49.406;19.484;2023-08-21T03:56:46;12.20;;;10.23;;
19951;SDS011;10137;49.406;19.484;2023-08-21T03:59:14;11.57;;;9.17;;
19951;SDS011;10137;49.406;19.484;2023-08-21T04:01:41;17.03;;;10.10;;
19951;SDS011;10137;49.406;19.484;2023-08-21T04:04:08;12.73;;;9.80;;
19951;SDS011;10137;49.406;19.484;2023-08-21T04:06:34;11.47;;;9.67;;
19951;SDS011;10137;49.406;19.484;2023-08-21T04:09:01;13.93;;;9.47;;
19951;SDS011;10137;49.406;19.484;2023-08-21T04:11:31;14.47;;;10.40;;
19951;SDS011;10137;49.406;19.484;2023-08-21T04:13:59;13.43;;;10.70;;
19951;SDS011;10137;49.406;19.484;2023-08-21T04:16:27;13.50;;;10.10;;
19951;SDS011;10137;49.406;19.484;2023-08-21T04:18:55;12.37;;;9.33;;
19951;SDS011;10137;49.406;19.484;2023-08-21T04:21:22;14.70;;;10.37;;
19951;SDS011;10137;49.406;19.484;2023-08-21T04:23:49;12.37;;;9.53;;
19951;SDS011;10137;49.406;19.484;2023-08-21T04:26:16;13.03;;;10.10;;
19951;SDS011;10137;49.406;19.484;2023-08-21T04:28:43;13.67;;;9.93;;
19951;SDS011;10137;49.406;19.484;2023-08-21T04:31:10;12.93;;;10.13;;
19951;SDS011;10137;49.406;19.484;2023-08-21T04:33:38;15.63;;;9.70;;
19951;SDS011;10137;49.406;19.484;2023-08-21T04:36:05;14.10;;;10.03;;
19951;SDS011;10137;49.406;19.484;2023-08-21T04:38:32;17.83;;;10.27;;
19951;SDS011;10137;49.406;19.484;2023-08-21T04:41:05;12.07;;;9.73;;
19951;SDS011;10137;49.406;19.484;2023-08-21T04:43:33;24.40;;;10.80;;
19951;SDS011;10137;49.406;19.484;2023-08-21T04:46:00;16.53;;;10.47;;
19951;SDS011;10137;49.406;19.484;2023-08-21T04:48:27;12.93;;;9.83;;
19951;SDS011;10137;49.406;19.484;2023-08-21T04:50:55;15.70;;;10.53;;
19951;SDS011;10137;49.406;19.484;2023-08-21T04:53:22;16.00;;;10.20;;
19951;SDS011;10137;49.406;19.484;2023-08-21T04:55:49;14.83;;;9.47;;
19951;SDS011;10137;49.406;19.484;2023-08-21T04:58:16;14.90;;;9.80;;
19951;SDS011;10137;49.406;19.484;2023-08-21T05:00:44;14.07;;;9.67;;
19951;SDS011;10137;49.406;19.484;2023-08-21T05:03:11;14.40;;;10.03;;
19951;SDS011;10137;49.406;19.484;2023-08-21T05:05:38;15.00;;;10.33;;
19951;SDS011;10137;49.406;19.484;2023-08-21T05:08:06;17.03;;;10.53;;
19951;SDS011;10137;49.406;19.484;2023-08-21T05:10:35;14.90;;;10.07;;
19951;SDS011;10137;49.406;19.484;2023-08-21T05:13:03;17.97;;;10.57;;
19951;SDS011;10137;49.406;19.484;2023-08-21T05:15:30;14.73;;;10.30;;
19951;SDS011;10137;49.406;19.484;2023-08-21T05:17:57;15.83;;;10.03;;
19951;SDS011;10137;49.406;19.484;2023-08-21T05:20:24;13.00;;;9.30;;
19951;SDS011;10137;49.406;19.484;2023-08-21T05:22:51;12.57;;;8.73;;
19951;SDS011;10137;49.406;19.484;2023-08-21T05:25:19;13.95;;;10.10;;
19951;SDS011;10137;49.406;19.484;2023-08-21T05:27:46;14.48;;;9.57;;
19951;SDS011;10137;49.406;19.484;2023-08-21T05:30:13;15.10;;;9.98;;
19951;SDS011;10137;49.406;19.484;2023-08-21T05:32:40;14.52;;;9.68;;
19951;SDS011;10137;49.406;19.484;2023-08-21T05:35:07;12.15;;;9.15;;
19951;SDS011;10137;49.406;19.484;2023-08-21T05:37:34;13.80;;;9.15;;
19951;SDS011;10137;49.406;19.484;2023-08-21T05:40:01;12.27;;;9.05;;
19951;SDS011;10137;49.406;19.484;2023-08-21T05:42:31;11.90;;;9.23;;
19951;SDS011;10137;49.406;19.484;2023-08-21T05:44:58;13.32;;;8.50;;
19951;SDS011;10137;49.406;19.484;2023-08-21T05:47:25;17.77;;;9.90;;
19951;SDS011;10137;49.406;19.484;2023-08-21T05:49:52;13.50;;;9.32;;
19951;SDS011;10137;49.406;19.484;2023-08-21T05:52:19;13.43;;;9.77;;
19951;SDS011;10137;49.406;19.484;2023-08-21T05:54:47;15.38;;;10.05;;
19951;SDS011;10137;49.406;19.484;2023-08-21T05:57:14;14.80;;;9.50;;
19951;SDS011;10137;49.406;19.484;2023-08-21T05:59:44;13.52;;;9.40;;
19951;SDS011;10137;49.406;19.484;2023-08-21T06:02:12;19.58;;;10.60;;
19951;SDS011;10137;49.406;19.484;2023-08-21T06:04:39;14.75;;;9.20;;
19951;SDS011;10137;49.406;19.484;2023-08-21T06:07:08;10.63;;;9.35;;
19951;SDS011;10137;49.406;19.484;2023-08-21T06:09:35;15.32;;;9.18;;
19951;SDS011;10137;49.406;19.484;2023-08-21T06:12:02;15.43;;;10.10;;
19951;SDS011;10137;49.406;19.484;2023-08-21T06:14:29;14.30;;;9.75;;
19951;SDS011;10137;49.406;19.484;2023-08-21T06:16:58;16.85;;;10.07;;
19951;SDS011;10137;49.406;19.484;2023-08-21T06:19:26;15.38;;;10.55;;
19951;SDS011;10137;49.406;19.484;2023-08-21T06:21:53;10.07;;;8.63;;
19951;SDS011;10137;49.406;19.484;2023-08-21T06:24:20;16.40;;;10.00;;
19951;SDS011;10137;49.406;19.484;2023-08-21T06:26:47;12.40;;;9.27;;
19951;SDS011;10137;49.406;19.484;2023-08-21T06:29:14;18.75;;;9.85;;
19951;SDS011;10137;49.406;19.484;2023-08-21T06:31:42;15.60;;;9.02;;
19951;SDS011;10137;49.406;19.484;2023-08-21T06:34:10;19.55;;;10.02;;
19951;SDS011;10137;49.406;19.484;2023-08-21T06:36:37;13.38;;;9.50;;
19951;SDS011;10137;49.406;19.484;2023-08-21T06:39:04;15.70;;;9.32;;
19951;SDS011;10137;49.406;19.484;2023-08-21T06:41:31;20.02;;;10.43;;
19951;SDS011;10137;49.406;19.484;2023-08-21T06:43:58;16.35;;;9.48;;
19951;SDS011;10137;49.406;19.484;2023-08-21T06:46:25;16.40;;;9.63;;
19951;SDS011;10137;49.406;19.484;2023-08-21T06:48:52;16.98;;;10.27;;
19951;SDS011;10137;49.406;19.484;2023-08-21T06:51:21;17.55;;;9.75;;
19951;SDS011;10137;49.406;19.484;2023-08-21T06:53:48;15.75;;;9.07;;
19951;SDS011;10137;49.406;19.484;2023-08-21T06:56:15;14.32;;;9.65;;
19951;SDS011;10137;49.406;19.484;2023-08-21T06:58:42;17.70;;;9.48;;
19951;SDS011;10137;49.406;19.484;2023-08-21T07:01:09;14.93;;;9.05;;
19951;SDS011;10137;49.406;19.484;2023-08-21T07:03:36;15.73;;;9.45;;
19951;SDS011;10137;49.406;19.484;2023-08-21T07:06:04;17.80;;;9.20;;
19951;SDS011;10137;49.406;19.484;2023-08-21T07:08:34;12.77;;;9.10;;
19951;SDS011;10137;49.406;19.484;2023-08-21T07:11:02;14.13;;;9.80;;
19951;SDS011;10137;49.406;19.484;2023-08-21T07:13:31;13.93;;;9.85;;
19951;SDS011;10137;49.406;19.484;2023-08-21T07:15:59;15.27;;;9.07;;
19951;SDS011;10137;49.406;19.484;2023-08-21T07:18:29;23.33;;;9.95;;
19951;SDS011;10137;49.406;19.484;2023-08-21T07:20:59;16.63;;;9.38;;
19951;SDS011;10137;49.406;19.484;2023-08-21T07:23:28;18.60;;;9.88;;
19951;SDS011;10137;49.406;19.484;2023-08-21T07:25:58;30.52;;;9.70;;
19951;SDS011;10137;49.406;19.484;2023-08-21T07:28:26;17.45;;;9.27;;
19951;SDS011;10137;49.406;19.484;2023-08-21T07:30:57;18.17;;;9.18;;
19951;SDS011;10137;49.406;19.484;2023-08-21T07:33:26;19.27;;;10.07;;
19951;SDS011;10137;49.406;19.484;2023-08-21T07:35:58;19.17;;;9.88;;
19951;SDS011;10137;49.406;19.484;2023-08-21T07:38:27;21.42;;;9.98;;
19951;SDS011;10137;49.406;19.484;2023-08-21T07:41:06;16.05;;;9.35;;
19951;SDS011;10137;49.406;19.484;2023-08-21T07:43:37;16.90;;;9.38;;
19951;SDS011;10137;49.406;19.484;2023-08-21T07:46:06;16.88;;;9.00;;
19951;SDS011;10137;49.406;19.484;2023-08-21T07:48:35;16.45;;;9.27;;
19951;SDS011;10137;49.406;19.484;2023-08-21T07:51:05;14.73;;;9.10;;
19951;SDS011;10137;49.406;19.484;2023-08-21T07:53:33;16.88;;;8.90;;
19951;SDS011;10137;49.406;19.484;2023-08-21T07:56:01;20.35;;;9.65;;
19951;SDS011;10137;49.406;19.484;2023-08-21T07:58:31;19.92;;;10.00;;
19951;SDS011;10137;49.406;19.484;2023-08-21T08:01:00;22.00;;;9.75;;
19951;SDS011;10137;49.406;19.484;2023-08-21T08:03:28;17.77;;;8.60;;
19951;SDS011;10137;49.406;19.484;2023-08-21T08:05:56;12.63;;;8.60;;
19951;SDS011;10137;49.406;19.484;2023-08-21T08:08:24;16.55;;;9.48;;
19951;SDS011;10137;49.406;19.484;2023-08-21T08:10:52;15.88;;;9.55;;
19951;SDS011;10137;49.406;19.484;2023-08-21T08:13:21;14.88;;;9.02;;
19951;SDS011;10137;49.406;19.484;2023-08-21T08:15:50;11.15;;;9.18;;
19951;SDS011;10137;49.406;19.484;2023-08-21T08:18:18;22.27;;;9.63;;
19951;SDS011;10137;49.406;19.484;2023-08-21T08:20:46;14.80;;;9.38;;
19951;SDS011;10137;49.406;19.484;2023-08-21T08:23:16;14.02;;;9.48;;
19951;SDS011;10137;49.406;19.484;2023-08-21T08:25:44;18.20;;;9.35;;
19951;SDS011;10137;49.406;19.484;2023-08-21T08:28:12;12.13;;;9.10;;
19951;SDS011;10137;49.406;19.484;2023-08-21T08:30:41;14.48;;;10.02;;
19951;SDS011;10137;49.406;19.484;2023-08-21T08:33:10;15.82;;;8.60;;
19951;SDS011;10137;49.406;19.484;2023-08-21T08:35:39;12.98;;;9.05;;
19951;SDS011;10137;49.406;19.484;2023-08-21T08:38:07;10.13;;;8.80;;
19951;SDS011;10137;49.406;19.484;2023-08-21T08:40:37;10.80;;;8.68;;
19951;SDS011;10137;49.406;19.484;2023-08-21T08:43:10;11.82;;;8.48;;
19951;SDS011;10137;49.406;19.484;2023-08-21T08:45:39;11.80;;;9.23;;
19951;SDS011;10137;49.406;19.484;2023-08-21T08:48:08;10.50;;;8.32;;
19951;SDS011;10137;49.406;19.484;2023-08-21T08:50:39;17.90;;;9.07;;
19951;SDS011;10137;49.406;19.484;2023-08-21T08:53:09;14.10;;;9.30;;
19951;SDS011;10137;49.406;19.484;2023-08-21T08:55:38;12.52;;;8.93;;
19951;SDS011;10137;49.406;19.484;2023-08-21T08:58:06;11.52;;;9.00;;
19951;SDS011;10137;49.406;19.484;2023-08-21T09:00:34;15.18;;;9.05;;
19951;SDS011;10137;49.406;19.484;2023-08-21T09:03:03;13.38;;;8.80;;
19951;SDS011;10137;49.406;19.484;2023-08-21T09:05:33;15.25;;;9.95;;
19951;SDS011;10137;49.406;19.484;2023-08-21T09:08:20;12.48;;;8.65;;
19951;SDS011;10137;49.406;19.484;2023-08-21T09:10:48;13.18;;;9.40;;
19951;SDS011;10137;49.406;19.484;2023-08-21T09:13:15;12.57;;;9.30;;
19951;SDS011;10137;49.406;19.484;2023-08-21T09:15:46;11.98;;;8.27;;
19951;SDS011;10137;49.406;19.484;2023-08-21T09:18:13;11.73;;;8.23;;
19951;SDS011;10137;49.406;19.484;2023-08-21T09:20:42;11.68;;;7.75;;
19951;SDS011;10137;49.406;19.484;2023-08-21T09:23:12;11.23;;;7.80;;
19951;SDS011;10137;49.406;19.484;2023-08-21T09:25:40;11.93;;;7.72;;
19951;SDS011;10137;49.406;19.484;2023-08-21T09:28:08;10.25;;;7.32;;
19951;SDS011;10137;49.406;19.484;2023-08-21T09:30:44;9.68;;;7.63;;
19951;SDS011;10137;49.406;19.484;2023-08-21T09:33:13;10.25;;;7.68;;
19951;SDS011;10137;49.406;19.484;2023-08-21T09:35:41;10.20;;;7.38;;
19951;SDS011;10137;49.406;19.484;2023-08-21T09:38:09;9.25;;;7.10;;
19951;SDS011;10137;49.406;19.484;2023-08-21T09:40:39;9.68;;;7.63;;
19951;SDS011;10137;49.406;19.484;2023-08-21T09:43:08;8.70;;;7.22;;
19951;SDS011;10137;49.406;19.484;2023-08-21T09:45:36;9.55;;;7.25;;
19951;SDS011;10137;49.406;19.484;2023-08-21T09:48:03;8.65;;;7.75;;
19951;SDS011;10137;49.406;19.484;2023-08-21T09:50:31;8.32;;;7.45;;
19951;SDS011;10137;49.406;19.484;2023-08-21T09:53:01;9.93;;;7.13;;
19951;SDS011;10137;49.406;19.484;2023-08-21T09:55:29;11.48;;;7.38;;
19951;SDS011;10137;49.406;19.484;2023-08-21T09:57:58;9.52;;;7.05;;
19951;SDS011;10137;49.406;19.484;2023-08-21T10:00:27;9.40;;;7.13;;
19951;SDS011;10137;49.406;19.484;2023-08-21T10:02:57;9.68;;;7.22;;
19951;SDS011;10137;49.406;19.484;2023-08-21T10:05:27;9.48;;;7.22;;
19951;SDS011;10137;49.406;19.484;2023-08-21T10:07:55;9.75;;;6.57;;
19951;SDS011;10137;49.406;19.484;2023-08-21T10:10:24;7.40;;;6.53;;
19951;SDS011;10137;49.406;19.484;2023-08-21T10:12:51;10.60;;;7.22;;
19951;SDS011;10137;49.406;19.484;2023-08-21T10:15:18;10.13;;;6.70;;
19951;SDS011;10137;49.406;19.484;2023-08-21T10:17:45;9.13;;;7.03;;
19951;SDS011;10137;49.406;19.484;2023-08-21T10:20:12;12.70;;;6.90;;
19951;SDS011;10137;49.406;19.484;2023-08-21T10:22:41;9.48;;;6.70;;
19951;SDS011;10137;49.406;19.484;2023-08-21T10:25:16;8.57;;;6.32;;
19951;SDS011;10137;49.406;19.484;2023-08-21T10:27:48;11.57;;;6.38;;
19951;SDS011;10137;49.406;19.484;2023-08-21T10:30:19;8.40;;;6.45;;
19951;SDS011;10137;49.406;19.484;2023-08-21T10:32:47;8.77;;;6.68;;
19951;SDS011;10137;49.406;19.484;2023-08-21T10:35:15;8.77;;;6.15;;
19951;SDS011;10137;49.406;19.484;2023-08-21T10:40:33;9.05;;;6.47;;
19951;SDS011;10137;49.406;19.484;2023-08-21T10:43:01;9.10;;;6.65;;
19951;SDS011;10137;49.406;19.484;2023-08-21T10:45:29;8.00;;;6.47;;
19951;SDS011;10137;49.406;19.484;2023-08-21T10:47:57;12.27;;;5.95;;
19951;SDS011;10137;49.406;19.484;2023-08-21T10:50:24;8.30;;;6.15;;
19951;SDS011;10137;49.406;19.484;2023-08-21T10:52:52;9.27;;;5.60;;
19951;SDS011;10137;49.406;19.484;2023-08-21T10:55:19;7.50;;;5.65;;
19951;SDS011;10137;49.406;19.484;2023-08-21T10:57:47;9.98;;;6.10;;
19951;SDS011;10137;49.406;19.484;2023-08-21T11:00:17;6.90;;;5.22;;
19951;SDS011;10137;49.406;19.484;2023-08-21T11:02:46;6.10;;;5.50;;
19951;SDS011;10137;49.406;19.484;2023-08-21T11:05:15;10.98;;;5.63;;
19951;SDS011;10137;49.406;19.484;2023-08-21T11:07:43;8.70;;;5.50;;
19951;SDS011;10137;49.406;19.484;2023-08-21T11:10:11;7.40;;;5.20;;
19951;SDS011;10137;49.406;19.484;2023-08-21T11:12:50;9.50;;;5.38;;
19951;SDS011;10137;49.406;19.484;2023-08-21T11:15:20;8.23;;;4.97;;
19951;SDS011;10137;49.406;19.484;2023-08-21T11:17:53;6.20;;;4.97;;
19951;SDS011;10137;49.406;19.484;2023-08-21T11:20:26;8.68;;;4.65;;
19951;SDS011;10137;49.406;19.484;2023-08-21T11:22:56;8.32;;;5.32;;
19951;SDS011;10137;49.406;19.484;2023-08-21T11:25:25;6.82;;;4.95;;
19951;SDS011;10137;49.406;19.484;2023-08-21T11:27:53;7.88;;;4.40;;
19951;SDS011;10137;49.406;19.484;2023-08-21T11:30:24;5.57;;;4.63;;
19951;SDS011;10137;49.406;19.484;2023-08-21T11:33:04;8.63;;;4.35;;
19951;SDS011;10137;49.406;19.484;2023-08-21T11:35:33;7.57;;;4.53;;
19951;SDS011;10137;49.406;19.484;2023-08-21T11:38:16;8.95;;;4.40;;
19951;SDS011;10137;49.406;19.484;2023-08-21T11:40:55;8.43;;;4.38;;
19951;SDS011;10137;49.406;19.484;2023-08-21T11:43:34;11.00;;;4.93;;
19951;SDS011;10137;49.406;19.484;2023-08-21T11:46:07;5.63;;;4.80;;
19951;SDS011;10137;49.406;19.484;2023-08-21T11:48:40;4.93;;;4.22;;
19951;SDS011;10137;49.406;19.484;2023-08-21T11:51:11;5.15;;;4.13;;
19951;SDS011;10137;49.406;19.484;2023-08-21T11:53:40;6.20;;;4.28;;
19951;SDS011;10137;49.406;19.484;2023-08-21T11:56:12;7.45;;;4.40;;
19951;SDS011;10137;49.406;19.484;2023-08-21T11:58:40;10.02;;;4.47;;
19951;SDS011;10137;49.406;19.484;2023-08-21T12:01:09;6.72;;;4.13;;
19951;SDS011;10137;49.406;19.484;2023-08-21T12:03:36;6.97;;;4.43;;
19951;SDS011;10137;49.406;19.484;2023-08-21T12:06:05;7.45;;;5.05;;
19951;SDS011;10137;49.406;19.484;2023-08-21T12:08:32;7.15;;;5.38;;
19951;SDS011;10137;49.406;19.484;2023-08-21T12:10:59;8.45;;;5.88;;
19951;SDS011;10137;49.406;19.484;2023-08-21T12:13:27;8.30;;;5.70;;
19951;SDS011;10137;49.406;19.484;2023-08-21T12:15:54;7.43;;;5.80;;
19951;SDS011;10137;49.406;19.484;2023-08-21T12:18:22;24.38;;;7.28;;
19951;SDS011;10137;49.406;19.484;2023-08-21T12:20:49;8.82;;;5.13;;
19951;SDS011;10137;49.406;19.484;2023-08-21T12:23:16;8.95;;;5.65;;
19951;SDS011;10137;49.406;19.484;2023-08-21T12:25:43;8.07;;;5.15;;
19951;SDS011;10137;49.406;19.484;2023-08-21T12:28:10;9.05;;;5.55;;
19951;SDS011;10137;49.406;19.484;2023-08-21T12:30:39;6.35;;;5.57;;
19951;SDS011;10137;49.406;19.484;2023-08-21T12:33:10;8.30;;;5.65;;
19951;SDS011;10137;49.406;19.484;2023-08-21T12:35:39;6.38;;;5.60;;
19951;SDS011;10137;49.406;19.484;2023-08-21T12:38:10;9.25;;;5.90;;
19951;SDS011;10137;49.406;19.484;2023-08-21T12:40:37;7.50;;;5.85;;
19951;SDS011;10137;49.406;19.484;2023-08-21T12:43:05;7.20;;;5.82;;
19951;SDS011;10137;49.406;19.484;2023-08-21T12:45:32;8.90;;;5.88;;
19951;SDS011;10137;49.406;19.484;2023-08-21T12:47:59;10.38;;;5.15;;
19951;SDS011;10137;49.406;19.484;2023-08-21T12:50:26;6.47;;;5.55;;
19951;SDS011;10137;49.406;19.484;2023-08-21T12:52:54;9.45;;;6.20;;
19951;SDS011;10137;49.406;19.484;2023-08-21T12:55:21;6.05;;;5.45;;
19951;SDS011;10137;49.406;19.484;2023-08-21T12:57:48;23.45;;;6.70;;
19951;SDS011;10137;49.406;19.484;2023-08-21T13:00:15;8.20;;;5.50;;
19951;SDS011;10137;49.406;19.484;2023-08-21T13:02:43;7.90;;;6.07;;
19951;SDS011;10137;49.406;19.484;2023-08-21T13:05:10;9.00;;;5.45;;
19951;SDS011;10137;49.406;19.484;2023-08-21T13:07:37;10.15;;;5.53;;
19951;SDS011;10137;49.406;19.484;2023-08-21T13:10:06;9.40;;;5.60;;
19951;SDS011;10137;49.406;19.484;2023-08-21T13:12:34;8.30;;;6.15;;
19951;SDS011;10137;49.406;19.484;2023-08-21T13:15:02;13.75;;;6.20;;
19951;SDS011;10137;49.406;19.484;2023-08-21T13:17:33;7.45;;;5.70;;
19951;SDS011;10137;49.406;19.484;2023-08-21T13:20:00;11.75;;;6.15;;
19951;SDS011;10137;49.406;19.484;2023-08-21T13:22:28;6.57;;;5.10;;
19951;SDS011;10137;49.406;19.484;2023-08-21T13:25:12;6.80;;;5.45;;
19951;SDS011;10137;49.406;19.484;2023-08-21T13:27:39;9.07;;;5.93;;
19951;SDS011;10137;49.406;19.484;2023-08-21T13:30:08;7.03;;;5.53;;
19951;SDS011;10137;49.406;19.484;2023-08-21T13:32:37;6.85;;;5.68;;
19951;SDS011;10137;49.406;19.484;2023-08-21T13:35:06;10.50;;;5.95;;
19951;SDS011;10137;49.406;19.484;2023-08-21T13:37:36;9.10;;;6.07;;
19951;SDS011;10137;49.406;19.484;2023-08-21T13:40:05;8.20;;;5.82;;
19951;SDS011;10137;49.406;19.484;2023-08-21T13:42:43;13.30;;;6.68;;
19951;SDS011;10137;49.406;19.484;2023-08-21T13:45:11;11.63;;;6.95;;
19951;SDS011;10137;49.406;19.484;2023-08-21T13:47:41;8.77;;;6.10;;
19951;SDS011;10137;49.406;19.484;2023-08-21T13:50:08;8.77;;;7.13;;
19951;SDS011;10137;49.406;19.484;2023-08-21T13:52:39;8.05;;;6.97;;
19951;SDS011;10137;49.406;19.484;2023-08-21T13:55:07;8.52;;;7.38;;
19951;SDS011;10137;49.406;19.484;2023-08-21T13:57:34;7.18;;;6.20;;
19951;SDS011;10137;49.406;19.484;2023-08-21T14:00:04;8.05;;;6.47;;
19951;SDS011;10137;49.406;19.484;2023-08-21T14:02:33;8.77;;;7.07;;
19951;SDS011;10137;49.406;19.484;2023-08-21T14:05:00;11.15;;;6.63;;
19951;SDS011;10137;49.406;19.484;2023-08-21T14:07:28;11.40;;;6.63;;
19951;SDS011;10137;49.406;19.484;2023-08-21T14:09:55;10.18;;;5.68;;
19951;SDS011;10137;49.406;19.484;2023-08-21T14:12:22;6.10;;;5.03;;
19951;SDS011;10137;49.406;19.484;2023-08-21T14:14:49;7.47;;;4.78;;
19951;SDS011;10137;49.406;19.484;2023-08-21T14:17:17;9.07;;;4.88;;
19951;SDS011;10137;49.406;19.484;2023-08-21T14:19:44;9.30;;;4.65;;
19951;SDS011;10137;49.406;19.484;2023-08-21T14:22:11;10.35;;;4.43;;
19951;SDS011;10137;49.406;19.484;2023-08-21T14:24:38;8.55;;;4.55;;
19951;SDS011;10137;49.406;19.484;2023-08-21T14:27:05;7.88;;;4.57;;
19951;SDS011;10137;49.406;19.484;2023-08-21T14:29:32;7.57;;;4.43;;
19951;SDS011;10137;49.406;19.484;2023-08-21T14:31:59;7.18;;;4.10;;